createdAt,value
2023-02-17T00:01:58.163Z,25.85
2023-02-17T00:07:06.786Z,24.42
2023-02-17T00:12:22.809Z,22.80
2023-02-17T00:17:44.971Z,22.80
2023-02-17T00:22:56.398Z,24.58
2023-02-17T00:28:07.598Z,23.00
2023-02-17T00:33:14.937Z,23.00
2023-02-17T00:38:20.178Z,20.58
2023-02-17T00:48:33.325Z,21.75
2023-02-17T00:53:39.465Z,20.15
2023-02-17T00:58:46.961Z,22.63
2023-02-17T01:03:55.004Z,21.13
2023-02-17T01:09:06.519Z,21.52
2023-02-17T01:14:17.247Z,21.45
2023-02-17T01:24:33.808Z,20.13
2023-02-17T01:29:41.518Z,20.90
2023-02-17T01:34:57.066Z,21.75
2023-02-17T01:40:04.789Z,20.30
2023-02-17T01:45:21.312Z,21.83
2023-02-17T01:50:41.554Z,19.48
2023-02-17T01:55:48.349Z,18.30
2023-02-17T02:00:59.796Z,17.80
2023-02-17T02:06:11.042Z,17.13
2023-02-17T02:11:18.142Z,17.15
2023-02-17T02:16:36.531Z,16.58
2023-02-17T02:21:53.015Z,17.40
2023-02-17T02:27:22.864Z,19.30
2023-02-17T02:32:43.132Z,18.55
2023-02-17T02:38:21.621Z,17.63
2023-02-17T02:43:28.146Z,18.42
2023-02-17T02:48:36.149Z,18.80
2023-02-17T02:54:05.131Z,18.17
2023-02-17T02:59:19.608Z,20.75
2023-02-17T03:04:51.339Z,20.20
2023-02-17T03:10:06.466Z,22.02
2023-02-17T03:15:26.680Z,22.48
2023-02-17T03:20:58.163Z,21.27
2023-02-17T03:26:12.820Z,20.63
2023-02-17T03:36:40.399Z,21.55
2023-02-17T03:41:53.428Z,20.52
2023-02-17T03:46:58.173Z,21.15
2023-02-17T03:57:05.391Z,21.02
2023-02-17T04:02:09.533Z,20.95
2023-02-17T04:07:13.766Z,21.77
2023-02-17T04:12:18.904Z,21.00
2023-02-17T04:17:24.528Z,21.52
2023-02-17T04:22:33.657Z,20.77
2023-02-17T04:27:39.704Z,21.55
2023-02-17T04:32:47.572Z,21.77
2023-02-17T04:37:55.795Z,20.40
2023-02-17T04:43:03.920Z,21.65
2023-02-17T04:48:09.540Z,23.25
2023-02-17T04:53:19.608Z,24.40
2023-02-17T04:58:33.516Z,23.27
2023-02-17T05:03:40.023Z,21.80
2023-02-17T05:08:47.208Z,26.52
2023-02-17T05:13:54.553Z,24.23
2023-02-17T05:19:00.455Z,24.65
2023-02-17T05:24:06.756Z,22.48
2023-02-17T05:29:15.390Z,24.17
2023-02-17T05:34:24.082Z,21.60
2023-02-17T05:39:28.576Z,23.15
2023-02-17T05:44:35.777Z,23.38
2023-02-17T05:49:47.788Z,24.98
2023-02-17T05:54:53.922Z,25.33
2023-02-17T06:00:04.293Z,24.50
2023-02-17T06:05:21.801Z,21.73
2023-02-17T06:10:31.087Z,24.80
2023-02-17T06:15:37.576Z,26.85
2023-02-17T06:20:42.220Z,25.23
2023-02-17T06:25:46.713Z,24.52
2023-02-17T06:30:50.719Z,25.08
2023-02-17T06:36:03.261Z,25.88
2023-02-17T06:41:14.096Z,25.20
2023-02-17T06:46:23.856Z,24.92
2023-02-17T06:51:31.161Z,23.65
2023-02-17T06:56:36.576Z,23.45
2023-02-17T07:01:40.355Z,21.90
2023-02-17T07:06:44.303Z,25.45
2023-02-17T07:11:51.576Z,23.23
2023-02-17T07:16:54.935Z,25.92
2023-02-17T07:21:58.575Z,23.52
2023-02-17T07:27:10.352Z,21.60
2023-02-17T07:32:20.459Z,22.42
2023-02-17T07:37:27.502Z,22.00
2023-02-17T07:42:32.292Z,22.65
2023-02-17T07:47:41.167Z,22.23
2023-02-17T07:52:51.812Z,23.10
2023-02-17T07:58:06.872Z,21.45
2023-02-17T08:03:11.837Z,21.20
2023-02-17T08:08:34.192Z,22.73
2023-02-17T08:13:37.710Z,22.65
2023-02-17T08:18:44.810Z,17.67
2023-02-17T08:23:58.932Z,20.13
2023-02-17T08:29:10.960Z,22.70
2023-02-17T08:34:18.888Z,26.02
2023-02-17T08:39:23.873Z,21.60
2023-02-17T08:44:28.367Z,18.13
2023-02-17T08:49:35.193Z,16.10
2023-02-17T08:54:43.227Z,20.38
2023-02-17T08:59:51.348Z,22.63
2023-02-17T09:04:54.985Z,44.45
2023-02-17T09:10:01.741Z,37.92
2023-02-17T09:15:06.182Z,30.33
2023-02-17T09:20:23.857Z,24.10
2023-02-17T09:25:30.631Z,24.45
2023-02-17T09:30:38.958Z,27.75
2023-02-17T09:35:44.760Z,32.53
2023-02-17T09:40:52.953Z,28.55
2023-02-17T09:46:11.501Z,29.60
2023-02-17T09:51:43.517Z,28.40
2023-02-17T09:56:52.772Z,24.73
2023-02-17T10:02:00.623Z,29.48
2023-02-17T10:07:12.592Z,23.02
2023-02-17T10:12:30.927Z,25.67
2023-02-17T10:18:14.496Z,38.75
2023-02-17T10:23:28.455Z,36.50
2023-02-17T10:29:05.421Z,34.67
2023-02-17T10:34:32.811Z,36.55
2023-02-17T10:39:52.164Z,33.08
2023-02-17T10:45:07.112Z,26.25
2023-02-17T10:50:24.266Z,30.85
2023-02-17T10:55:55.372Z,34.70
2023-02-17T11:01:25.447Z,25.53
2023-02-17T11:07:03.569Z,24.38
2023-02-17T11:12:31.102Z,23.05
2023-02-17T11:17:45.017Z,22.30
2023-02-17T11:23:28.472Z,26.38
2023-02-17T11:28:34.749Z,56.97
2023-02-17T11:33:40.770Z,29.38
2023-02-17T11:39:01.689Z,23.55
2023-02-17T11:44:19.321Z,21.02
2023-02-17T11:55:11.642Z,26.30
2023-02-17T12:00:49.035Z,25.42
2023-02-17T12:06:17.694Z,24.50
2023-02-17T12:11:44.305Z,25.73
2023-02-17T12:22:45.566Z,28.17
2023-02-17T12:28:19.933Z,21.90
2023-02-17T12:33:47.355Z,22.30
2023-02-17T12:39:26.056Z,27.83
2023-02-17T12:44:47.951Z,30.50
2023-02-17T12:50:29.509Z,27.23
2023-02-17T12:55:56.066Z,23.95
2023-02-17T13:01:20.900Z,25.20
2023-02-17T13:06:45.907Z,20.00
2023-02-17T13:11:58.793Z,30.40
2023-02-17T13:17:59.879Z,25.13
2023-02-17T13:23:08.836Z,28.80
2023-02-17T13:28:40.092Z,22.08
2023-02-17T13:33:54.306Z,17.73
2023-02-17T13:39:01.995Z,22.50
2023-02-17T13:44:28.967Z,25.00
2023-02-17T13:49:39.489Z,34.08
2023-02-17T13:55:27.420Z,29.75
2023-02-17T14:08:08.594Z,23.52
2023-02-17T14:13:57.352Z,21.33
2023-02-17T14:46:46.961Z,16.13
2023-02-17T15:06:35.054Z,18.17
2023-02-17T15:12:17.277Z,18.77
2023-02-17T15:17:40.803Z,11.75
2023-02-17T15:22:56.048Z,12.18
2023-02-17T15:28:18.720Z,11.90
2023-02-17T15:33:24.490Z,13.13
2023-02-17T15:43:53.192Z,13.88
2023-02-17T15:49:25.765Z,14.93
2023-02-17T15:54:35.583Z,17.05
2023-02-17T16:00:02.271Z,14.82
2023-02-17T16:05:13.548Z,19.30
2023-02-17T16:10:42.532Z,24.58
2023-02-17T16:15:53.744Z,13.52
2023-02-17T16:21:04.775Z,10.10
2023-02-17T16:26:37.357Z,10.43
2023-02-17T16:31:41.136Z,9.32
2023-02-17T16:36:45.961Z,12.27
2023-02-17T16:41:52.496Z,11.88
2023-02-17T16:46:57.448Z,14.13
2023-02-17T16:52:34.875Z,21.15
2023-02-17T16:57:43.921Z,15.80
2023-02-17T17:02:54.167Z,17.35
2023-02-17T17:07:59.490Z,12.40
2023-02-17T17:13:06.324Z,15.43
2023-02-17T17:18:21.218Z,10.88
2023-02-17T17:23:27.850Z,11.93
2023-02-17T17:28:38.992Z,9.25
2023-02-17T17:33:42.145Z,10.07
2023-02-17T17:43:52.808Z,12.47
2023-02-17T17:49:02.264Z,10.95
2023-02-17T17:54:13.886Z,14.93
2023-02-17T17:59:20.768Z,13.50
2023-02-17T18:04:24.512Z,11.70
2023-02-17T18:09:32.475Z,16.27
2023-02-17T18:14:48.112Z,11.20
2023-02-17T18:19:56.779Z,11.98
2023-02-17T18:25:07.257Z,12.32
2023-02-17T18:30:24.988Z,13.48
2023-02-17T18:35:32.278Z,10.90
2023-02-17T18:40:44.906Z,9.63
2023-02-17T18:45:50.955Z,10.07
2023-02-17T18:51:48.438Z,10.88
2023-02-17T18:57:00.363Z,18.05
2023-02-17T19:02:08.630Z,13.27
2023-02-17T19:07:21.247Z,22.33
2023-02-17T19:12:26.692Z,13.20
2023-02-17T19:17:39.670Z,14.57
2023-02-17T19:22:45.594Z,23.83
2023-02-17T19:27:53.730Z,12.02
2023-02-17T19:33:03.187Z,8.80
2023-02-17T19:38:16.376Z,6.38
2023-02-17T19:43:30.970Z,4.70
2023-02-17T19:48:43.763Z,9.82
2023-02-17T19:53:52.771Z,7.45
2023-02-17T19:58:59.676Z,5.60
2023-02-17T20:04:09.529Z,4.90
2023-02-17T20:09:24.320Z,9.55
2023-02-17T20:14:33.261Z,7.10
2023-02-17T20:19:39.664Z,8.20
2023-02-17T20:24:48.293Z,5.28
2023-02-17T20:29:56.168Z,5.25
2023-02-17T20:35:02.892Z,9.95
2023-02-17T20:40:13.261Z,19.23
2023-02-17T20:45:21.509Z,6.40
2023-02-17T20:50:31.516Z,8.18
2023-02-17T20:55:38.980Z,7.38
2023-02-17T21:00:57.737Z,7.30
2023-02-17T21:06:07.423Z,5.88
2023-02-17T21:11:12.618Z,4.47
2023-02-17T21:16:19.585Z,5.15
2023-02-17T21:21:23.486Z,8.32
2023-02-17T21:26:30.994Z,8.68
2023-02-17T21:31:37.404Z,7.47
2023-02-17T21:36:40.652Z,8.95
2023-02-17T21:41:49.732Z,4.90
2023-02-17T21:46:55.584Z,4.40
2023-02-17T21:52:00.961Z,3.97
2023-02-17T21:57:05.294Z,5.70
2023-02-17T22:07:18.673Z,5.40
2023-02-17T22:12:24.355Z,4.97
2023-02-17T22:17:34.917Z,4.82
2023-02-17T22:22:42.014Z,4.32
2023-02-17T22:27:48.503Z,2.90
2023-02-17T22:38:03.735Z,2.10
2023-02-17T22:43:20.518Z,2.70
2023-02-17T22:48:34.210Z,2.40
2023-02-17T22:53:40.711Z,2.25
2023-02-17T22:58:48.097Z,2.17
2023-02-17T23:03:54.966Z,2.83
2023-02-17T23:09:05.576Z,4.35
2023-02-17T23:14:14.707Z,3.65
2023-02-17T23:19:24.189Z,3.22
2023-02-17T23:24:30.570Z,4.18
2023-02-17T23:29:42.449Z,4.70
2023-02-17T23:35:13.954Z,6.10
2023-02-17T23:40:23.253Z,5.13
2023-02-17T23:45:32.819Z,5.65
2023-02-17T23:50:39.904Z,5.60
2023-02-17T23:55:44.490Z,6.28
